createdAt,value
2023-05-15T00:01:56.714Z,11.48
2023-05-15T00:04:23.476Z,11.50
2023-05-15T00:06:50.568Z,11.36
2023-05-15T00:09:20.401Z,11.26
2023-05-15T00:11:47.183Z,11.31
2023-05-15T00:14:13.998Z,11.29
2023-05-15T00:16:41.077Z,11.19
2023-05-15T00:19:07.900Z,11.16
2023-05-15T00:21:34.688Z,11.19
2023-05-15T00:24:01.513Z,11.10
2023-05-15T00:26:28.153Z,11.19
2023-05-15T00:28:54.898Z,11.19
2023-05-15T00:31:21.839Z,11.06
2023-05-15T00:33:48.605Z,10.53
2023-05-15T00:36:15.441Z,9.81
2023-05-15T00:38:42.163Z,9.97
2023-05-15T00:41:10.687Z,10.03
2023-05-15T00:43:39.824Z,10.34
2023-05-15T00:46:08.147Z,10.63
2023-05-15T00:48:35.616Z,10.74
2023-05-15T00:51:02.598Z,10.55
2023-05-15T00:53:29.425Z,10.66
2023-05-15T00:55:58.807Z,10.76
2023-05-15T00:58:28.235Z,10.81
2023-05-15T01:00:55.211Z,10.79
2023-05-15T01:03:22.123Z,10.78
2023-05-15T01:05:48.977Z,10.75
2023-05-15T01:08:39.290Z,10.48
2023-05-15T01:11:07.915Z,10.47
2023-05-15T01:13:34.728Z,10.30
2023-05-15T01:16:01.497Z,10.31
2023-05-15T01:18:32.634Z,10.40
2023-05-15T01:21:05.204Z,10.56
2023-05-15T01:23:52.481Z,10.46
2023-05-15T01:26:56.912Z,10.53
2023-05-15T01:29:30.733Z,10.57
2023-05-15T01:31:58.868Z,10.33
2023-05-15T01:34:39.650Z,10.22
2023-05-15T01:37:09.222Z,10.22
2023-05-15T01:39:37.035Z,10.33
2023-05-15T01:42:10.999Z,10.48
2023-05-15T01:44:43.262Z,10.64
2023-05-15T01:47:18.223Z,10.56
2023-05-15T01:49:45.731Z,10.59
2023-05-15T01:52:40.446Z,10.62
2023-05-15T01:55:08.816Z,10.51
2023-05-15T01:57:37.356Z,10.32
2023-05-15T02:00:04.571Z,10.22
2023-05-15T02:02:42.382Z,10.11
2023-05-15T02:05:09.838Z,9.94
2023-05-15T02:07:37.446Z,9.95
2023-05-15T02:10:05.159Z,9.87
2023-05-15T02:12:32.246Z,9.94
2023-05-15T02:14:59.857Z,9.92
2023-05-15T02:17:28.272Z,9.83
2023-05-15T02:19:55.527Z,9.81
2023-05-15T02:22:22.212Z,9.76
2023-05-15T02:24:48.910Z,9.72
2023-05-15T02:27:27.229Z,9.73
2023-05-15T02:30:26.051Z,9.73
2023-05-15T02:33:12.001Z,9.79
2023-05-15T02:35:52.453Z,9.75
2023-05-15T02:38:26.425Z,9.67
2023-05-15T02:40:55.866Z,9.62
2023-05-15T02:43:22.911Z,9.57
2023-05-15T02:45:50.411Z,9.55
2023-05-15T02:48:18.223Z,9.49
2023-05-15T02:50:46.175Z,9.43
2023-05-15T02:53:14.680Z,9.51
2023-05-15T02:55:41.578Z,9.53
2023-05-15T02:58:08.905Z,9.46
2023-05-15T03:00:35.732Z,9.38
2023-05-15T03:03:02.617Z,9.57
2023-05-15T03:05:29.373Z,9.78
2023-05-15T03:07:57.738Z,9.72
2023-05-15T03:10:24.581Z,9.89
2023-05-15T03:12:51.563Z,9.89
2023-05-15T03:15:19.339Z,9.83
2023-05-15T03:17:46.478Z,9.67
2023-05-15T03:20:14.259Z,9.82
2023-05-15T03:22:41.675Z,9.59
2023-05-15T03:25:11.283Z,9.39
2023-05-15T03:27:38.186Z,9.35
2023-05-15T03:30:06.267Z,9.42
2023-05-15T03:32:33.128Z,9.56
2023-05-15T03:34:59.846Z,9.70
2023-05-15T03:37:26.667Z,9.77
2023-05-15T03:39:53.521Z,9.86
2023-05-15T03:42:25.026Z,9.77
2023-05-15T03:44:52.181Z,9.67
2023-05-15T03:47:19.057Z,9.69
2023-05-15T03:49:46.572Z,9.71
2023-05-15T03:52:13.627Z,9.76
2023-05-15T03:54:40.824Z,9.72
2023-05-15T03:57:07.977Z,9.79
2023-05-15T03:59:37.996Z,9.87
2023-05-15T04:02:05.800Z,9.82
2023-05-15T04:04:33.034Z,9.99
2023-05-15T04:07:00.687Z,9.87
2023-05-15T04:09:27.570Z,9.88
2023-05-15T04:11:54.810Z,9.92
2023-05-15T04:14:21.567Z,9.88
2023-05-15T04:16:48.435Z,10.01
2023-05-15T04:19:15.382Z,10.05
2023-05-15T04:21:42.463Z,10.06
2023-05-15T04:24:09.280Z,9.98
2023-05-15T04:26:36.774Z,9.98
2023-05-15T04:29:04.776Z,10.00
2023-05-15T04:31:32.481Z,10.09
2023-05-15T04:33:59.482Z,10.08
2023-05-15T04:36:26.185Z,10.07
2023-05-15T04:38:52.974Z,10.11
2023-05-15T04:41:19.863Z,10.21
2023-05-15T04:43:46.674Z,10.24
2023-05-15T04:46:13.715Z,10.31
2023-05-15T04:48:40.528Z,10.29
2023-05-15T04:51:07.942Z,10.41
2023-05-15T04:53:34.757Z,10.45
2023-05-15T04:56:01.522Z,10.58
2023-05-15T04:58:28.305Z,10.66
2023-05-15T05:00:56.127Z,10.70
2023-05-15T05:03:23.356Z,10.79
2023-05-15T05:05:50.218Z,10.88
2023-05-15T05:08:17.085Z,10.89
2023-05-15T05:10:43.920Z,10.95
2023-05-15T05:13:10.709Z,11.07
2023-05-15T05:15:37.803Z,11.15
2023-05-15T05:18:05.138Z,11.23
2023-05-15T05:20:31.918Z,11.33
2023-05-15T05:22:58.868Z,11.41
2023-05-15T05:25:25.872Z,11.50
2023-05-15T05:27:52.811Z,11.59
2023-05-15T05:30:19.525Z,11.60
2023-05-15T05:32:46.292Z,11.64
2023-05-15T05:35:13.110Z,11.66
2023-05-15T05:37:41.252Z,11.66
2023-05-15T05:40:09.216Z,11.65
2023-05-15T05:42:36.101Z,11.78
2023-05-15T05:45:02.889Z,11.90
2023-05-15T05:47:29.677Z,11.96
2023-05-15T05:49:56.430Z,12.12
2023-05-15T05:52:23.269Z,12.11
2023-05-15T05:54:50.035Z,12.19
2023-05-15T05:57:16.985Z,12.27
2023-05-15T05:59:44.048Z,12.27
2023-05-15T06:02:11.560Z,12.39
2023-05-15T06:04:38.281Z,12.49
2023-05-15T06:07:05.217Z,12.53
2023-05-15T06:09:32.108Z,12.65
2023-05-15T06:11:58.939Z,12.86
2023-05-15T06:14:26.069Z,12.91
2023-05-15T06:16:52.886Z,13.05
2023-05-15T06:19:19.767Z,13.32
2023-05-15T06:21:46.582Z,13.58
2023-05-15T06:24:13.323Z,13.61
2023-05-15T06:26:40.122Z,13.80
2023-05-15T06:29:06.895Z,13.88
2023-05-15T06:31:33.694Z,13.93
2023-05-15T06:34:00.471Z,14.08
2023-05-15T06:36:27.271Z,14.16
2023-05-15T06:38:54.018Z,13.96
2023-05-15T06:41:21.655Z,13.97
2023-05-15T06:43:48.429Z,13.99
2023-05-15T06:46:17.219Z,14.06
2023-05-15T06:48:43.957Z,14.05
2023-05-15T06:51:10.941Z,14.14
2023-05-15T06:53:37.872Z,14.20
2023-05-15T06:56:04.674Z,14.21
2023-05-15T06:58:31.425Z,14.31
2023-05-15T07:00:59.381Z,14.28
2023-05-15T07:03:26.197Z,14.41
2023-05-15T07:05:53.908Z,14.86
2023-05-15T07:08:21.014Z,15.03
2023-05-15T07:10:49.431Z,14.93
2023-05-15T07:13:20.847Z,14.91
2023-05-15T07:15:47.810Z,14.99
2023-05-15T07:18:14.656Z,14.96
2023-05-15T07:20:41.413Z,15.53
2023-05-15T07:23:08.276Z,16.01
2023-05-15T07:25:35.015Z,16.33
2023-05-15T07:28:01.808Z,16.99
2023-05-15T07:30:28.738Z,17.21
2023-05-15T07:32:55.556Z,17.54
2023-05-15T07:35:22.421Z,16.68
2023-05-15T07:37:49.283Z,16.73
2023-05-15T07:40:16.069Z,16.49
2023-05-15T07:42:45.014Z,16.38
2023-05-15T07:45:11.779Z,16.20
2023-05-15T07:47:38.591Z,16.45
2023-05-15T07:50:06.035Z,16.57
2023-05-15T07:52:32.795Z,16.38
2023-05-15T07:54:59.542Z,16.05
2023-05-15T07:57:26.638Z,16.07
2023-05-15T07:59:53.374Z,15.99
2023-05-15T08:02:20.051Z,15.87
2023-05-15T08:04:46.836Z,15.76
2023-05-15T08:07:14.409Z,15.88
2023-05-15T08:09:41.260Z,15.86
2023-05-15T08:12:23.480Z,15.95
2023-05-15T08:14:51.726Z,15.89
2023-05-15T08:17:19.328Z,15.97
2023-05-15T08:19:46.450Z,16.04
2023-05-15T08:22:13.297Z,16.32
2023-05-15T08:24:40.429Z,16.20
2023-05-15T08:27:08.745Z,16.43
2023-05-15T08:29:38.570Z,16.53
2023-05-15T08:32:07.439Z,16.80
2023-05-15T08:34:34.177Z,16.96
2023-05-15T08:37:00.980Z,17.04
2023-05-15T08:39:27.651Z,16.74
2023-05-15T08:42:10.779Z,16.73
2023-05-15T08:44:38.170Z,16.99
2023-05-15T08:47:06.576Z,17.33
2023-05-15T08:49:47.936Z,17.50
2023-05-15T08:52:15.457Z,17.33
2023-05-15T08:54:42.673Z,17.29
2023-05-15T08:57:10.782Z,17.63
2023-05-15T08:59:38.020Z,18.15
2023-05-15T09:02:05.113Z,19.19
2023-05-15T09:04:32.420Z,19.45
2023-05-15T09:07:03.937Z,19.69
2023-05-15T09:09:33.314Z,18.85
2023-05-15T09:12:02.579Z,18.94
2023-05-15T09:14:29.459Z,18.70
2023-05-15T09:16:56.326Z,18.70
2023-05-15T09:19:23.119Z,18.86
2023-05-15T09:21:50.132Z,19.18
2023-05-15T09:24:17.391Z,19.19
2023-05-15T09:26:45.983Z,19.48
2023-05-15T09:29:18.014Z,20.06
2023-05-15T09:31:48.651Z,19.51
2023-05-15T09:34:15.459Z,19.30
2023-05-15T09:36:45.334Z,19.49
2023-05-15T09:39:12.419Z,19.47
2023-05-15T09:41:43.130Z,19.38
2023-05-15T09:44:27.621Z,19.67
2023-05-15T09:46:54.591Z,19.90
2023-05-15T09:49:21.410Z,20.24
2023-05-15T09:51:50.597Z,20.06
2023-05-15T09:54:19.233Z,19.47
2023-05-15T09:56:47.616Z,19.44
2023-05-15T09:59:16.514Z,20.00
2023-05-15T10:01:45.731Z,20.42
2023-05-15T10:04:13.875Z,20.67
2023-05-15T10:06:45.442Z,20.29
2023-05-15T10:09:14.277Z,20.81
2023-05-15T10:11:47.374Z,20.57
2023-05-15T10:14:14.330Z,21.06
2023-05-15T10:16:41.298Z,21.11
2023-05-15T10:19:11.067Z,20.61
2023-05-15T10:21:39.908Z,21.13
2023-05-15T10:24:07.983Z,21.50
2023-05-15T10:26:40.177Z,21.38
2023-05-15T10:29:13.958Z,21.08
2023-05-15T10:31:41.640Z,21.43
2023-05-15T10:34:09.551Z,21.45
2023-05-15T10:36:38.501Z,21.70
2023-05-15T10:39:06.784Z,21.43
2023-05-15T10:41:36.944Z,21.56
2023-05-15T10:44:03.769Z,22.20
2023-05-15T10:46:33.711Z,21.59
2023-05-15T10:49:01.914Z,21.96
2023-05-15T10:51:30.305Z,22.13
2023-05-15T10:53:57.757Z,21.75
2023-05-15T10:56:30.947Z,21.52
2023-05-15T10:58:57.803Z,21.90
2023-05-15T11:01:32.476Z,21.95
2023-05-15T11:04:05.096Z,22.01
2023-05-15T11:06:32.718Z,21.96
2023-05-15T11:09:27.237Z,21.90
2023-05-15T11:11:57.912Z,21.64
2023-05-15T11:14:26.274Z,21.43
2023-05-15T11:16:53.559Z,21.80
2023-05-15T11:19:29.381Z,21.97
2023-05-15T11:22:08.391Z,21.67
2023-05-15T11:24:55.471Z,21.92
2023-05-15T11:27:24.325Z,22.25
2023-05-15T11:30:09.690Z,22.22
2023-05-15T11:32:50.846Z,22.25
2023-05-15T11:35:24.102Z,21.92
2023-05-15T11:37:54.320Z,22.45
2023-05-15T11:40:32.156Z,21.92
2023-05-15T11:43:18.757Z,21.64
2023-05-15T11:46:11.056Z,21.41
2023-05-15T11:48:41.688Z,21.11
2023-05-15T11:51:21.787Z,21.24
2023-05-15T11:53:55.279Z,21.33
2023-05-15T11:56:28.398Z,22.44
2023-05-15T11:58:57.553Z,21.53
2023-05-15T12:01:24.522Z,22.10
2023-05-15T12:03:52.309Z,22.50
2023-05-15T12:06:19.421Z,22.18
2023-05-15T12:08:52.830Z,21.90
2023-05-15T12:11:23.774Z,22.31
2023-05-15T12:13:54.575Z,22.68
2023-05-15T12:16:28.300Z,23.08
2023-05-15T12:18:57.915Z,22.94
2023-05-15T12:21:27.268Z,23.30
2023-05-15T12:26:27.476Z,22.97
2023-05-15T12:28:55.495Z,23.25
2023-05-15T12:31:22.514Z,23.02
2023-05-15T12:33:49.427Z,23.23
2023-05-15T12:36:20.566Z,22.71
2023-05-15T12:38:47.866Z,23.12
2023-05-15T12:41:14.633Z,23.66
2023-05-15T12:43:41.538Z,23.49
2023-05-15T12:46:08.624Z,23.22
2023-05-15T12:48:36.375Z,23.69
2023-05-15T12:51:07.789Z,23.23
2023-05-15T12:53:35.314Z,22.90
2023-05-15T12:56:02.423Z,22.68
2023-05-15T12:58:29.248Z,22.94
2023-05-15T13:00:57.120Z,23.39
2023-05-15T13:03:25.317Z,23.87
2023-05-15T13:05:52.604Z,23.81
2023-05-15T13:08:19.736Z,23.55
2023-05-15T13:10:47.786Z,23.43
2023-05-15T13:13:15.824Z,22.87
2023-05-15T13:15:44.678Z,23.53
2023-05-15T13:18:16.482Z,23.56
2023-05-15T13:20:54.018Z,23.49
2023-05-15T13:23:23.654Z,23.38
2023-05-15T13:25:50.380Z,23.30
2023-05-15T13:28:17.253Z,22.95
2023-05-15T13:30:44.135Z,23.10
2023-05-15T13:33:12.792Z,23.13
2023-05-15T13:35:41.340Z,23.18
2023-05-15T13:38:11.221Z,23.03
2023-05-15T13:40:39.036Z,23.64
2023-05-15T13:43:08.735Z,23.09
2023-05-15T13:45:35.439Z,22.56
2023-05-15T13:48:02.336Z,22.88
2023-05-15T13:50:29.129Z,23.18
2023-05-15T13:52:56.114Z,23.16
2023-05-15T13:55:23.536Z,23.13
2023-05-15T13:57:51.505Z,23.02
2023-05-15T14:00:19.906Z,23.12
2023-05-15T14:02:46.647Z,22.74
2023-05-15T14:05:14.967Z,22.67
2023-05-15T14:07:42.164Z,22.43
2023-05-15T14:10:09.264Z,22.18
2023-05-15T14:12:37.215Z,22.54
2023-05-15T14:15:04.563Z,23.04
2023-05-15T14:17:31.277Z,23.31
2023-05-15T14:19:58.010Z,23.68
2023-05-15T14:22:25.255Z,23.53
2023-05-15T14:24:53.067Z,23.69
2023-05-15T14:27:20.286Z,23.76
2023-05-15T14:29:49.308Z,23.10
2023-05-15T14:32:17.451Z,23.65
2023-05-15T14:34:44.532Z,23.66
2023-05-15T14:37:11.380Z,23.79
2023-05-15T14:39:38.040Z,23.70
2023-05-15T14:42:05.242Z,24.03
2023-05-15T14:44:32.616Z,23.35
2023-05-15T14:47:09.679Z,22.50
2023-05-15T14:49:37.198Z,23.17
2023-05-15T14:52:06.082Z,23.17
2023-05-15T14:54:32.970Z,22.95
2023-05-15T14:56:59.597Z,22.15
2023-05-15T14:59:28.101Z,22.11
2023-05-15T15:01:54.875Z,21.88
2023-05-15T15:04:21.687Z,21.54
2023-05-15T15:06:48.713Z,21.51
2023-05-15T15:09:15.610Z,21.58
2023-05-15T15:11:42.617Z,22.13
2023-05-15T15:14:09.317Z,22.05
2023-05-15T15:16:36.161Z,22.22
2023-05-15T15:19:02.995Z,21.94
2023-05-15T15:21:29.780Z,22.25
2023-05-15T15:23:57.426Z,22.42
2023-05-15T15:26:24.066Z,22.28
2023-05-15T15:28:50.782Z,22.38
2023-05-15T15:31:17.508Z,21.69
2023-05-15T15:33:44.217Z,21.33
2023-05-15T15:36:11.038Z,21.90
2023-05-15T15:38:41.905Z,21.86
2023-05-15T15:41:08.912Z,21.72
2023-05-15T15:43:35.658Z,21.39
2023-05-15T15:46:02.404Z,20.64
2023-05-15T15:48:29.593Z,20.65
2023-05-15T15:50:57.220Z,20.37
2023-05-15T15:53:24.247Z,20.47
2023-05-15T15:55:51.170Z,20.60
2023-05-15T15:58:19.845Z,20.26
2023-05-15T16:00:46.725Z,19.90
2023-05-15T16:03:13.644Z,19.97
2023-05-15T16:05:40.409Z,19.98
2023-05-15T16:08:07.243Z,20.44
2023-05-15T16:10:33.960Z,19.76
2023-05-15T16:13:00.653Z,19.83
2023-05-15T16:15:27.439Z,19.83
2023-05-15T16:17:55.005Z,20.00
2023-05-15T16:20:22.844Z,20.11
2023-05-15T16:22:49.970Z,19.80
2023-05-15T16:25:16.895Z,20.80
2023-05-15T16:27:43.749Z,20.52
2023-05-15T16:30:11.767Z,20.05
2023-05-15T16:32:38.561Z,19.89
2023-05-15T16:35:05.856Z,20.23
2023-05-15T16:37:32.710Z,19.84
2023-05-15T16:39:59.446Z,19.58
2023-05-15T16:42:26.273Z,20.10
2023-05-15T16:44:53.185Z,20.22
2023-05-15T16:47:20.017Z,20.16
2023-05-15T16:49:48.449Z,19.77
2023-05-15T16:52:17.219Z,19.67
2023-05-15T16:54:43.923Z,19.67
2023-05-15T16:57:10.706Z,19.55
2023-05-15T16:59:37.514Z,19.47
2023-05-15T17:02:04.501Z,19.43
2023-05-15T17:04:35.067Z,19.41
2023-05-15T17:07:01.866Z,19.23
2023-05-15T17:09:28.681Z,19.22
2023-05-15T17:11:55.693Z,19.04
2023-05-15T17:14:22.835Z,19.04
2023-05-15T17:16:49.589Z,18.94
2023-05-15T17:19:16.470Z,18.73
2023-05-15T17:21:43.450Z,18.57
2023-05-15T17:24:10.307Z,18.46
2023-05-15T17:26:36.939Z,18.47
2023-05-15T17:29:03.659Z,18.45
2023-05-15T17:31:30.472Z,18.42
2023-05-15T17:33:57.488Z,18.25
2023-05-15T17:36:24.211Z,18.16
2023-05-15T17:38:50.914Z,18.10
2023-05-15T17:41:17.602Z,17.94
2023-05-15T17:43:44.440Z,17.98
2023-05-15T17:46:11.199Z,17.80
2023-05-15T17:48:38.001Z,17.67
2023-05-15T17:51:04.784Z,17.65
2023-05-15T17:53:31.427Z,17.70
2023-05-15T17:55:58.173Z,17.54
2023-05-15T17:58:25.086Z,17.46
2023-05-15T18:00:52.244Z,17.38
2023-05-15T18:03:18.972Z,17.14
2023-05-15T18:05:47.139Z,17.27
2023-05-15T18:08:14.315Z,17.16
2023-05-15T18:10:41.046Z,16.91
2023-05-15T18:13:07.933Z,16.76
2023-05-15T18:15:37.671Z,16.60
2023-05-15T18:18:04.698Z,16.78
2023-05-15T18:20:31.747Z,16.65
2023-05-15T18:22:58.556Z,16.49
2023-05-15T18:25:25.560Z,16.37
2023-05-15T18:27:52.686Z,16.26
2023-05-15T18:30:19.902Z,16.27
2023-05-15T18:32:46.704Z,16.19
2023-05-15T18:35:13.596Z,15.95
2023-05-15T18:37:40.483Z,15.93
2023-05-15T18:40:07.787Z,15.56
2023-05-15T18:42:34.629Z,15.42
2023-05-15T18:45:02.335Z,15.48
2023-05-15T18:47:29.209Z,15.43
2023-05-15T18:49:56.055Z,15.50
2023-05-15T18:52:23.166Z,15.31
2023-05-15T18:54:50.007Z,15.28
2023-05-15T18:57:16.996Z,15.28
2023-05-15T18:59:44.774Z,15.12
2023-05-15T19:02:11.729Z,15.06
2023-05-15T19:04:38.510Z,14.92
2023-05-15T19:07:06.150Z,14.91
2023-05-15T19:09:32.900Z,14.80
2023-05-15T19:12:00.255Z,14.77
2023-05-15T19:14:27.064Z,14.78
2023-05-15T19:16:54.117Z,14.66
2023-05-15T19:19:21.667Z,14.59
2023-05-15T19:21:50.636Z,14.46
2023-05-15T19:24:17.667Z,14.50
2023-05-15T19:26:44.454Z,14.37
2023-05-15T19:29:11.416Z,14.25
2023-05-15T19:31:39.330Z,14.25
2023-05-15T19:34:06.369Z,14.31
2023-05-15T19:36:33.073Z,14.18
2023-05-15T19:38:59.753Z,14.24
2023-05-15T19:41:26.727Z,14.13
2023-05-15T19:43:53.357Z,14.14
2023-05-15T19:46:20.310Z,13.90
2023-05-15T19:48:47.289Z,13.84
2023-05-15T19:51:13.965Z,13.77
2023-05-15T19:53:41.521Z,13.82
2023-05-15T19:56:08.279Z,13.62
2023-05-15T19:58:35.072Z,13.74
2023-05-15T20:01:01.763Z,13.69
2023-05-15T20:03:33.350Z,13.61
2023-05-15T20:06:01.632Z,13.56
2023-05-15T20:08:28.827Z,13.45
2023-05-15T20:10:55.650Z,13.38
2023-05-15T20:13:23.195Z,13.50
2023-05-15T20:16:00.114Z,13.49
2023-05-15T20:18:28.512Z,13.40
2023-05-15T20:20:55.615Z,13.45
2023-05-15T20:23:22.569Z,13.30
2023-05-15T20:25:50.872Z,13.31
2023-05-15T20:28:18.015Z,13.15
2023-05-15T20:30:47.519Z,13.02
2023-05-15T20:33:14.650Z,13.05
2023-05-15T20:35:42.869Z,13.10
2023-05-15T20:38:10.644Z,12.86
2023-05-15T20:40:37.787Z,12.94
2023-05-15T20:43:05.281Z,12.93
2023-05-15T20:45:35.066Z,12.88
2023-05-15T20:48:01.886Z,12.79
2023-05-15T20:50:28.805Z,12.90
2023-05-15T20:52:55.873Z,12.92
2023-05-15T20:55:22.849Z,12.89
2023-05-15T20:57:50.469Z,12.86
2023-05-15T21:00:18.387Z,12.79
2023-05-15T21:02:46.722Z,12.76
2023-05-15T21:05:13.930Z,12.82
2023-05-15T21:07:41.013Z,12.86
2023-05-15T21:10:08.450Z,12.80
2023-05-15T21:12:35.206Z,12.71
2023-05-15T21:15:02.963Z,12.80
2023-05-15T21:17:30.042Z,12.77
2023-05-15T21:19:58.624Z,12.75
2023-05-15T21:22:25.414Z,12.79
2023-05-15T21:24:52.138Z,12.71
2023-05-15T21:27:18.974Z,12.73
2023-05-15T21:29:45.987Z,12.71
2023-05-15T21:32:12.984Z,12.68
2023-05-15T21:34:39.791Z,12.64
2023-05-15T21:37:06.631Z,12.63
2023-05-15T21:39:33.496Z,12.62
2023-05-15T21:42:00.184Z,12.65
2023-05-15T21:44:26.865Z,12.63
2023-05-15T21:46:53.613Z,12.69
2023-05-15T21:49:20.555Z,12.70
2023-05-15T21:51:47.330Z,12.61
2023-05-15T21:54:13.972Z,12.68
2023-05-15T21:56:41.367Z,12.79
2023-05-15T21:59:08.288Z,12.76
2023-05-15T22:01:36.442Z,12.65
2023-05-15T22:04:03.334Z,12.59
2023-05-15T22:06:30.136Z,12.71
2023-05-15T22:08:57.408Z,12.65
2023-05-15T22:11:24.099Z,12.67
2023-05-15T22:13:51.082Z,12.60
2023-05-15T22:16:19.555Z,12.58
2023-05-15T22:18:47.696Z,12.44
2023-05-15T22:21:15.241Z,12.54
2023-05-15T22:23:41.941Z,12.59
2023-05-15T22:26:08.696Z,12.56
2023-05-15T22:28:35.571Z,12.57
2023-05-15T22:31:03.460Z,12.61
2023-05-15T22:33:30.299Z,12.57
2023-05-15T22:35:57.074Z,12.64
2023-05-15T22:38:24.016Z,12.53
2023-05-15T22:40:51.820Z,12.45
2023-05-15T22:43:18.864Z,12.47
2023-05-15T22:45:45.829Z,12.42
2023-05-15T22:48:12.568Z,12.49
2023-05-15T22:50:39.283Z,12.49
2023-05-15T22:53:05.959Z,12.50
2023-05-15T22:55:32.823Z,12.49
2023-05-15T22:57:59.472Z,12.45
2023-05-15T23:00:26.526Z,12.43
2023-05-15T23:02:55.493Z,12.43
2023-05-15T23:05:22.586Z,12.33
2023-05-15T23:07:49.434Z,12.37
2023-05-15T23:10:16.133Z,12.29
2023-05-15T23:12:42.818Z,12.26
2023-05-15T23:15:13.015Z,12.19
2023-05-15T23:17:40.305Z,12.33
2023-05-15T23:20:08.787Z,12.12
2023-05-15T23:22:35.462Z,12.29
2023-05-15T23:25:02.255Z,12.26
2023-05-15T23:27:28.996Z,12.19
2023-05-15T23:29:55.638Z,12.16
2023-05-15T23:32:22.451Z,12.30
2023-05-15T23:34:49.229Z,12.32
2023-05-15T23:37:16.887Z,12.34
2023-05-15T23:39:43.659Z,12.32
2023-05-15T23:42:12.374Z,12.36
2023-05-15T23:44:39.044Z,12.29
2023-05-15T23:47:06.813Z,12.29
2023-05-15T23:49:33.902Z,12.34
2023-05-15T23:52:00.837Z,12.25
2023-05-15T23:54:28.090Z,12.32
2023-05-15T23:56:54.968Z,12.28
2023-05-15T23:59:21.800Z,12.18
